Time;durP1;ratioP1;P1;durP2;ratioP2;P2;SDS_P1;SDS_P2;PMS_P1;PMS_P2;Temp;Humidity;BMP_temperature;BMP_pressure;BME280_temperature;BME280_humidity;BME280_pressure;Samples;Min_cycle;Max_cycle;Signal;HPM_P1;HPM_P2
2021/09/22 00:00:09;;;;;;;35.53;23.42;;;;;;;6.12;100.00;96955.81;1032594;28;20097;-67
2021/09/22 00:00:39;;;;;;;31.65;23.85;;;;;;;6.12;100.00;96951.38;1035129;28;20245;-66
2021/09/22 00:01:10;;;;;;;35.38;23.90;;;;;;;6.14;100.00;96948.59;1032630;28;20034;-63
2021/09/22 00:01:40;;;;;;;35.40;22.02;;;;;;;5.98;100.00;96922.97;1034329;28;20045;-65
2021/09/22 00:02:10;;;;;;;37.70;24.17;;;;;;;6.14;100.00;96956.41;1030134;28;20027;-66
2021/09/22 00:02:41;;;;;;;48.35;23.33;;;;;;;6.10;100.00;96943.00;1034620;28;20475;-64
2021/09/22 00:03:11;;;;;;;35.60;24.27;;;;;;;6.13;100.00;96950.38;1026734;28;20705;-67
2021/09/22 00:03:42;;;;;;;32.38;24.20;;;;;;;6.13;100.00;96945.16;1039430;28;20506;-70
2021/09/22 00:04:12;;;;;;;32.65;24.33;;;;;;;6.14;100.00;96943.38;1034221;28;20408;-67
2021/09/22 00:04:43;;;;;;;32.75;23.90;;;;;;;6.11;100.00;96944.59;1035009;28;20511;-67
2021/09/22 00:05:13;;;;;;;32.20;21.75;;;;;;;6.06;100.00;96935.78;1037054;28;20499;-66
2021/09/22 00:05:44;;;;;;;30.50;22.20;;;;;;;6.11;100.00;96938.56;1024271;28;20420;-67
2021/09/22 00:06:14;;;;;;;35.38;24.42;;;;;;;6.09;100.00;96941.38;1021679;28;20564;-67
2021/09/22 00:06:44;;;;;;;30.80;22.00;;;;;;;6.12;100.00;96945.38;1022889;29;20028;-66
2021/09/22 00:07:15;;;;;;;33.10;23.60;;;;;;;6.09;100.00;96940.56;1022485;28;20035;-66
2021/09/22 00:07:45;;;;;;;33.20;21.67;;;;;;;6.08;100.00;96938.97;1034886;28;20037;-67
2021/09/22 00:08:16;;;;;;;28.90;21.35;;;;;;;6.06;100.00;96946.19;1038358;28;20072;-66
2021/09/22 00:08:46;;;;;;;27.42;20.42;;;;;;;6.06;100.00;96941.78;1039016;28;20021;-66
2021/09/22 00:09:17;;;;;;;28.90;20.52;;;;;;;6.05;100.00;96942.78;1037991;28;21808;-66
2021/09/22 00:09:47;;;;;;;30.77;21.50;;;;;;;6.05;100.00;96944.59;1030951;28;20502;-68
2021/09/22 00:10:18;;;;;;;31.40;21.02;;;;;;;6.03;100.00;96941.38;1028997;28;20031;-67
2021/09/22 00:10:49;;;;;;;26.13;21.30;;;;;;;6.02;100.00;96945.00;1034999;28;20570;-67
2021/09/22 00:11:19;;;;;;;29.60;21.52;;;;;;;6.02;100.00;96945.00;1033929;28;20348;-67
2021/09/22 00:11:50;;;;;;;28.50;21.92;;;;;;;6.02;100.00;96945.00;1039049;28;20036;-64
2021/09/22 00:12:20;;;;;;;27.55;20.35;;;;;;;5.98;100.00;96942.00;1034161;28;20392;-64
2021/09/22 00:12:50;;;;;;;25.85;20.70;;;;;;;5.99;100.00;96948.81;1035176;28;20466;-66
2021/09/22 00:13:21;;;;;;;26.13;20.13;;;;;;;5.99;100.00;96950.63;1032589;28;20024;-64
2021/09/22 00:13:51;;;;;;;27.15;20.88;;;;;;;6.00;100.00;96953.03;1033165;28;20022;-67
2021/09/22 00:14:22;;;;;;;29.40;20.45;;;;;;;5.99;100.00;96951.41;1031235;28;20077;-68
2021/09/22 00:14:52;;;;;;;28.65;20.98;;;;;;;5.99;100.00;96942.81;1035051;28;20388;-67
2021/09/22 00:15:23;;;;;;;30.80;23.27;;;;;;;5.98;100.00;96949.03;1024218;28;21992;-67
2021/09/22 00:15:54;;;;;;;32.95;23.17;;;;;;;5.97;100.00;96952.63;1023538;28;20465;-66
2021/09/22 00:16:24;;;;;;;29.35;21.48;;;;;;;5.96;100.00;96943.22;1022621;28;20263;-68
2021/09/22 00:16:55;;;;;;;31.20;23.50;;;;;;;5.89;100.00;96930.97;1023413;28;20020;-67
2021/09/22 00:17:25;;;;;;;29.20;22.25;;;;;;;5.95;100.00;96952.03;1028250;28;20030;-67
2021/09/22 00:17:56;;;;;;;32.15;22.90;;;;;;;5.97;100.00;96944.81;1030952;28;20056;-67
2021/09/22 00:18:26;;;;;;;30.40;22.95;;;;;;;5.96;100.00;96943.22;1035180;28;20575;-67
2021/09/22 00:18:57;;;;;;;32.60;20.83;;;;;;;5.94;100.00;96943.44;1037129;28;20637;-65
2021/09/22 00:19:27;;;;;;;25.80;18.88;;;;;;;5.94;100.00;96945.22;1036201;28;20028;-67
2021/09/22 00:19:58;;;;;;;25.15;20.52;;;;;;;5.94;100.00;96942.63;1031245;28;20615;-66
2021/09/22 00:20:28;;;;;;;30.40;22.17;;;;;;;5.94;100.00;96942.63;1032288;28;20018;-67
2021/09/22 00:20:59;;;;;;;28.02;20.67;;;;;;;5.93;100.00;96936.59;1026878;28;20026;-67
2021/09/22 00:21:29;;;;;;;26.52;19.77;;;;;;;5.94;100.00;96943.44;1028046;28;20034;-67
2021/09/22 00:22:00;;;;;;;27.92;20.25;;;;;;;5.94;100.00;96937.41;1032461;28;20029;-67
2021/09/22 00:22:30;;;;;;;27.40;21.65;;;;;;;5.86;100.00;96926.16;1030228;28;20125;-67
2021/09/22 00:23:01;;;;;;;27.60;20.60;;;;;;;5.93;100.00;96935.78;1022315;28;20030;-64
2021/09/22 00:23:31;;;;;;;30.63;21.10;;;;;;;5.90;100.00;96937.78;1024756;28;20184;-66
2021/09/22 00:24:02;;;;;;;29.98;23.05;;;;;;;5.95;100.00;96939.00;1025570;28;20030;-67
2021/09/22 00:24:32;;;;;;;30.33;21.98;;;;;;;5.91;100.00;96938.59;1023128;28;20026;-67
2021/09/22 00:25:04;;;;;;;29.50;22.05;;;;;;;5.92;100.00;96929.75;1026486;28;20026;-66
2021/09/22 00:25:36;;;;;;;28.95;21.38;;;;;;;5.93;100.00;96941.00;1029764;28;20035;-67
2021/09/22 00:26:06;;;;;;;28.88;21.55;;;;;;;5.91;100.00;96936.78;1030899;28;20257;-67
2021/09/22 00:26:36;;;;;;;27.30;22.00;;;;;;;5.90;100.00;96939.56;1032389;28;20269;-67
2021/09/22 00:27:07;;;;;;;34.00;22.05;;;;;;;5.89;100.00;96936.16;1030739;28;20035;-67
2021/09/22 00:27:37;;;;;;;28.00;21.55;;;;;;;5.89;100.00;96940.59;1029142;28;20022;-67
2021/09/22 00:28:08;;;;;;;28.90;21.23;;;;;;;5.89;100.00;96943.19;1031754;28;20044;-66
2021/09/22 00:28:38;;;;;;;26.83;20.23;;;;;;;5.82;100.00;96924.97;1028339;28;20034;-67
2021/09/22 00:29:09;;;;;;;26.98;21.52;;;;;;;5.88;100.00;96934.56;1022646;28;20022;-66
2021/09/22 00:29:39;;;;;;;28.85;22.17;;;;;;;5.88;100.00;96944.19;1030797;28;20033;-67
2021/09/22 00:30:11;;;;;;;30.98;21.40;;;;;;;5.83;100.00;96928.38;1026577;28;20067;-67
2021/09/22 00:30:41;;;;;;;27.25;21.70;;;;;;;5.87;100.00;96938.19;1026620;28;20039;-66
2021/09/22 00:31:12;;;;;;;27.73;20.38;;;;;;;5.88;100.00;96936.38;1034227;28;20264;-64
2021/09/22 00:31:42;;;;;;;27.48;20.85;;;;;;;5.88;100.00;96936.38;1029175;28;20018;-66
2021/09/22 00:32:13;;;;;;;28.50;21.30;;;;;;;5.87;100.00;96946.00;1030501;28;20105;-66
2021/09/22 00:32:46;;;;;;;26.58;20.40;;;;;;;5.88;100.00;96939.78;1037204;28;20051;-67
2021/09/22 00:33:17;;;;;;;26.77;20.20;;;;;;;5.87;100.00;96934.78;1033647;28;20030;-66
2021/09/22 00:33:47;;;;;;;25.48;20.60;;;;;;;5.87;100.00;96938.19;1037976;28;20292;-67
2021/09/22 00:34:18;;;;;;;26.08;18.98;;;;;;;5.89;100.00;96938.78;1038933;28;20029;-67
2021/09/22 00:34:48;;;;;;;29.98;21.88;;;;;;;5.90;100.00;96939.56;1038470;28;20013;-67
2021/09/22 00:35:19;;;;;;;27.10;19.48;;;;;;;5.88;100.00;96939.78;1039152;28;20017;-67
2021/09/22 00:35:49;;;;;;;31.30;20.13;;;;;;;5.88;100.00;96933.78;1036371;28;20088;-67
2021/09/22 00:36:20;;;;;;;26.90;20.40;;;;;;;5.89;100.00;96930.97;1035100;28;20022;-67
2021/09/22 00:36:50;;;;;;;27.65;21.45;;;;;;;5.86;100.00;96926.16;1034219;28;20169;-67
2021/09/22 00:37:20;;;;;;;29.75;21.70;;;;;;;5.89;100.00;96930.97;1030691;28;20121;-64
2021/09/22 00:37:51;;;;;;;28.00;21.67;;;;;;;5.80;100.00;96915.75;1031566;28;20045;-68
2021/09/22 00:38:21;;;;;;;28.23;20.73;;;;;;;5.88;100.00;96928.56;1030868;28;20026;-66
2021/09/22 00:38:52;;;;;;;26.00;21.00;;;;;;;5.89;100.00;96940.59;1033592;28;20026;-65
2021/09/22 00:39:22;;;;;;;28.63;20.23;;;;;;;5.88;100.00;96928.56;1034192;28;20614;-66
2021/09/22 00:39:53;;;;;;;25.35;19.85;;;;;;;5.88;100.00;96931.19;1023696;28;20465;-66
2021/09/22 00:40:23;;;;;;;27.48;20.30;;;;;;;5.90;100.00;96929.16;1027392;28;20744;-67
2021/09/22 00:40:53;;;;;;;30.17;20.98;;;;;;;5.89;100.00;96930.16;1029082;28;20408;-67
2021/09/22 00:41:24;;;;;;;24.95;20.10;;;;;;;5.88;100.00;96934.56;1025285;28;20019;-63
2021/09/22 00:41:54;;;;;;;25.48;20.65;;;;;;;5.86;100.00;96926.16;1031059;28;20030;-67
2021/09/22 00:42:25;;;;;;;26.15;20.48;;;;;;;5.88;100.00;96926.75;1031087;28;20034;-67
2021/09/22 00:42:55;;;;;;;26.20;20.67;;;;;;;5.85;100.00;96921.97;1019793;28;20023;-67
2021/09/22 00:43:26;;;;;;;29.45;20.83;;;;;;;5.85;100.00;96921.16;1019281;29;20426;-67
2021/09/22 00:43:56;;;;;;;30.88;20.55;;;;;;;5.88;100.00;96928.56;1025930;28;20019;-67
2021/09/22 00:44:27;;;;;;;30.38;21.23;;;;;;;5.85;100.00;96927.16;1025301;28;20015;-67
2021/09/22 00:45:05;;;;;;;28.30;21.88;;;;;;;5.88;100.00;96924.16;1029688;28;20033;-67
2021/09/22 00:45:35;;;;;;;29.02;21.65;;;;;;;5.87;100.00;96926.97;1032139;28;20030;-65
2021/09/22 00:46:05;;;;;;;31.75;21.88;;;;;;;5.88;100.00;96928.56;1036083;28;20280;-67
2021/09/22 00:46:36;;;;;;;26.90;21.30;;;;;;;5.86;100.00;96920.94;1039209;28;20079;-64
2021/09/22 00:47:06;;;;;;;27.38;21.13;;;;;;;5.86;100.00;96926.16;1035248;28;20404;-68
2021/09/22 00:47:37;;;;;;;29.08;21.17;;;;;;;5.86;100.00;96926.16;1039515;28;20124;-64
2021/09/22 00:48:07;;;;;;;31.13;22.92;;;;;;;5.82;100.00;96919.75;1038600;28;20068;-69
2021/09/22 00:48:38;;;;;;;33.35;23.15;;;;;;;5.85;100.00;96924.56;1035561;28;20115;-67
2021/09/22 00:49:08;;;;;;;35.05;24.88;;;;;;;5.73;100.00;96894.13;1027494;28;20034;-67
2021/09/22 00:49:39;;;;;;;39.20;24.42;;;;;;;5.86;100.00;96918.34;1028203;28;20015;-65
2021/09/22 00:50:09;;;;;;;39.03;25.50;;;;;;;5.87;100.00;96924.38;1031193;28;20018;-67
2021/09/22 00:50:40;;;;;;;37.00;25.88;;;;;;;5.80;100.00;96907.94;1031428;28;20026;-65
2021/09/22 00:51:11;;;;;;;38.70;26.20;;;;;;;5.87;100.00;96919.16;1034061;28;20029;-65
2021/09/22 00:51:41;;;;;;;31.48;23.55;;;;;;;5.88;100.00;96918.94;1035268;28;20033;-64
2021/09/22 00:52:13;;;;;;;32.85;23.75;;;;;;;5.87;100.00;96917.34;1033305;28;21135;-66
2021/09/22 00:52:44;;;;;;;33.53;22.67;;;;;;;5.86;100.00;96915.72;1027122;28;20552;-64
2021/09/22 00:53:15;;;;;;;31.45;23.40;;;;;;;5.88;100.00;96921.56;1025536;28;20293;-66
2021/09/22 00:53:45;;;;;;;31.83;22.48;;;;;;;5.88;100.00;96920.75;1026928;28;20018;-67
2021/09/22 00:54:15;;;;;;;37.53;25.23;;;;;;;5.89;100.00;96924.94;1030793;28;20050;-66
2021/09/22 00:54:49;;;;;;;36.20;24.20;;;;;;;5.90;100.00;96923.94;1030797;28;20023;-66
2021/09/22 00:55:22;;;;;;;37.25;24.80;;;;;;;5.91;100.00;96922.97;1026706;28;20019;-67
2021/09/22 00:55:52;;;;;;;32.72;23.85;;;;;;;5.89;100.00;96920.53;1030937;28;20285;-67
2021/09/22 00:56:23;;;;;;;35.85;24.45;;;;;;;5.89;100.00;96923.16;1027545;28;20265;-67
2021/09/22 00:56:53;;;;;;;35.05;24.17;;;;;;;5.89;100.00;96919.75;1027957;28;20035;-66
2021/09/22 00:57:24;;;;;;;33.08;23.83;;;;;;;5.87;100.00;96913.97;1030646;28;20026;-67
2021/09/22 00:57:55;;;;;;;38.53;26.42;;;;;;;5.90;100.00;96922.16;1026411;28;20122;-66
2021/09/22 00:58:26;;;;;;;34.60;25.30;;;;;;;5.90;100.00;96921.34;1022862;28;20019;-66
2021/09/22 00:58:56;;;;;;;46.72;29.65;;;;;;;5.93;100.00;96925.38;1027083;28;20308;-66
2021/09/22 00:59:27;;;;;;;46.15;29.50;;;;;;;5.95;100.00;96920.78;1023260;29;20716;-67
2021/09/22 00:59:57;;;;;;;41.28;29.10;;;;;;;5.94;100.00;96916.56;1023013;28;20055;-66
2021/09/22 01:00:28;;;;;;;42.58;28.05;;;;;;;5.91;100.00;96913.34;1034858;28;20018;-67
2021/09/22 01:00:59;;;;;;;39.58;26.85;;;;;;;5.97;100.00;96922.19;1035061;28;20068;-67
2021/09/22 01:01:29;;;;;;;41.60;28.23;;;;;;;5.96;100.00;96922.38;1038256;28;20264;-67
2021/09/22 01:02:00;;;;;;;36.55;25.98;;;;;;;5.99;100.00;96927.16;1038466;28;20022;-66
2021/09/22 01:02:30;;;;;;;40.30;27.25;;;;;;;5.96;100.00;96922.38;1039120;28;20452;-66
2021/09/22 01:03:01;;;;;;;41.05;28.35;;;;;;;5.97;100.00;96924.78;1033930;28;20064;-66
2021/09/22 01:03:31;;;;;;;43.85;29.40;;;;;;;5.96;100.00;96930.19;1034997;28;20048;-67
2021/09/22 01:04:03;;;;;;;39.10;26.27;;;;;;;5.95;100.00;96925.97;1030774;28;20025;-66
2021/09/22 01:04:33;;;;;;;39.92;25.40;;;;;;;5.94;100.00;96924.41;1031178;28;20117;-67
2021/09/22 01:05:04;;;;;;;43.90;28.80;;;;;;;5.86;100.00;96909.72;1030941;28;20261;-67
2021/09/22 01:05:34;;;;;;;41.30;28.30;;;;;;;5.93;100.00;96931.38;1026970;28;20046;-67
2021/09/22 01:06:05;;;;;;;32.53;24.42;;;;;;;5.90;100.00;96924.75;1022915;28;20023;-66
2021/09/22 01:06:35;;;;;;;32.92;24.30;;;;;;;5.93;100.00;96925.38;1027263;28;20027;-67
2021/09/22 01:07:10;;;;;;;36.75;26.08;;;;;;;5.94;100.00;96921.78;1026913;28;20368;-67
2021/09/22 01:07:40;;;;;;;38.30;26.38;;;;;;;5.91;100.00;96920.34;1031449;28;20029;-64
2021/09/22 01:08:11;;;;;;;36.58;26.42;;;;;;;5.89;100.00;96920.53;1034906;28;20260;-67
2021/09/22 01:08:41;;;;;;;38.20;26.77;;;;;;;5.88;100.00;96918.94;1031883;28;20566;-66
2021/09/22 01:09:12;;;;;;;37.58;26.42;;;;;;;5.93;100.00;96920.16;1035234;28;20507;-67
2021/09/22 01:09:42;;;;;;;36.72;25.40;;;;;;;5.93;100.00;96931.38;1026711;28;20015;-66
2021/09/22 01:10:13;;;;;;;37.45;26.63;;;;;;;5.95;100.00;96924.19;1022683;28;20055;-67
2021/09/22 01:10:46;;;;;;;37.97;26.35;;;;;;;5.95;100.00;96929.38;1018995;29;20051;-67
2021/09/22 01:11:17;;;;;;;39.80;27.55;;;;;;;5.93;100.00;96920.97;1023347;28;20027;-67
2021/09/22 01:11:47;;;;;;;33.92;24.80;;;;;;;5.84;100.00;96912.56;1026853;28;20266;-66
2021/09/22 01:12:18;;;;;;;33.22;23.63;;;;;;;5.91;100.00;96926.34;1027589;28;20031;-67
2021/09/22 01:12:48;;;;;;;35.78;23.98;;;;;;;5.90;100.00;96924.75;1030816;28;20022;-67
2021/09/22 01:13:19;;;;;;;35.75;25.33;;;;;;;5.93;100.00;96930.59;1033942;28;20014;-68
2021/09/22 01:13:49;;;;;;;34.65;24.77;;;;;;;5.92;100.00;96927.16;1034808;28;20050;-67
2021/09/22 01:14:24;;;;;;;43.95;26.75;;;;;;;5.83;100.00;96910.94;1030601;28;20041;-66
2021/09/22 01:14:54;;;;;;;40.67;27.98;;;;;;;5.89;100.00;96925.75;1025888;28;20015;-66
2021/09/22 01:15:36;;;;;;;36.72;25.83;;;;;;;5.88;100.00;96924.16;1030569;28;20312;-67
2021/09/22 01:16:07;;;;;;;34.67;24.63;;;;;;;5.89;100.00;96924.94;1029060;28;20014;-67
2021/09/22 01:16:43;;;;;;;33.00;23.52;;;;;;;5.89;100.00;96920.53;1034772;28;20996;-67
2021/09/22 01:17:19;;;;;;;35.40;24.35;;;;;;;5.90;100.00;96918.72;1035139;28;20289;-67
2021/09/22 01:17:51;;;;;;;36.78;24.92;;;;;;;5.89;100.00;96920.53;1029911;28;20277;-66
2021/09/22 01:18:22;;;;;;;40.72;26.27;;;;;;;5.89;100.00;96920.53;1034872;28;20303;-66
2021/09/22 01:18:53;;;;;;;41.05;26.45;;;;;;;5.86;100.00;96915.72;1027091;28;20258;-67
2021/09/22 01:19:26;;;;;;;40.13;28.02;;;;;;;5.87;100.00;96924.38;1027550;28;20258;-66
2021/09/22 01:20:04;;;;;;;38.03;24.95;;;;;;;5.87;100.00;96916.56;1031279;28;20014;-67
2021/09/22 01:20:34;;;;;;;48.05;24.67;;;;;;;5.86;100.00;96918.34;1029853;28;20269;-65
2021/09/22 01:21:04;;;;;;;44.15;25.00;;;;;;;5.88;100.00;96918.16;1030737;28;20257;-67
2021/09/22 01:21:35;;;;;;;41.42;26.40;;;;;;;5.88;100.00;96924.16;1031660;28;20385;-67
2021/09/22 01:22:05;;;;;;;41.03;26.80;;;;;;;5.83;100.00;96904.91;1033527;28;20026;-66
2021/09/22 01:22:36;;;;;;;36.17;24.98;;;;;;;5.88;100.00;96921.56;1031012;28;20018;-66
2021/09/22 01:23:08;;;;;;;34.47;25.35;;;;;;;5.80;100.00;96906.16;1031218;28;20010;-67
2021/09/22 01:23:38;;;;;;;33.35;23.48;;;;;;;5.86;100.00;96918.34;1030815;28;20026;-67
2021/09/22 01:24:09;;;;;;;36.83;26.20;;;;;;;5.79;100.00;96901.94;1030969;28;20608;-67
2021/09/22 01:24:39;;;;;;;35.80;25.10;;;;;;;5.87;100.00;96916.56;1027605;28;20385;-67
2021/09/22 01:25:10;;;;;;;37.38;26.63;;;;;;;5.87;100.00;96922.56;1034896;28;20029;-67
2021/09/22 01:25:43;;;;;;;35.38;24.35;;;;;;;5.80;100.00;96900.13;1031090;28;20465;-66
2021/09/22 01:26:13;;;;;;;34.83;24.85;;;;;;;5.77;100.00;96905.72;1034210;28;20260;-67
2021/09/22 01:26:44;;;;;;;31.60;22.95;;;;;;;5.83;100.00;96913.53;1027002;28;20286;-66
2021/09/22 01:27:14;;;;;;;38.17;26.75;;;;;;;5.81;100.00;96910.34;1026872;28;20037;-67
2021/09/22 01:27:48;;;;;;;32.78;24.15;;;;;;;5.83;100.00;96915.34;1024947;28;20035;-67
2021/09/22 01:28:21;;;;;;;35.95;25.52;;;;;;;5.83;100.00;96917.94;1027176;28;20010;-67
2021/09/22 01:28:51;;;;;;;35.75;26.35;;;;;;;5.78;100.00;96905.53;1022919;29;20335;-67
2021/09/22 01:29:22;;;;;;;32.58;24.02;;;;;;;5.83;100.00;96916.13;1022278;28;20298;-67
2021/09/22 01:29:52;;;;;;;40.15;24.65;;;;;;;5.84;100.00;96922.97;1023506;28;20043;-66
2021/09/22 01:30:23;;;;;;;39.95;26.17;;;;;;;5.84;100.00;96912.56;1027004;28;20034;-66
2021/09/22 01:30:53;;;;;;;35.55;25.88;;;;;;;5.83;100.00;96915.34;1031074;28;20527;-67
2021/09/22 01:31:24;;;;;;;35.08;25.40;;;;;;;5.85;100.00;96914.13;1030346;28;20015;-67
2021/09/22 01:31:54;;;;;;;41.33;28.15;;;;;;;5.85;100.00;96919.34;1035002;28;20089;-66
2021/09/22 01:32:25;;;;;;;38.25;24.83;;;;;;;5.86;100.00;96909.72;1035202;28;20025;-67
2021/09/22 01:33:05;;;;;;;36.05;25.70;;;;;;;5.82;100.00;96908.53;1027482;28;20030;-67
2021/09/22 01:33:35;;;;;;;;;;;;;;;5.82;100.00;96917.16;1023636;29;20599;-67
2021/09/22 01:34:06;;;;;;;;;;;;;;;5.82;100.00;96913.75;1024746;28;19906;-66
2021/09/22 01:34:37;;;;;;;33.42;22.35;;;;;;;5.80;100.00;96910.53;1030747;28;19945;-67
2021/09/22 01:35:07;;;;;;;34.20;24.20;;;;;;;5.79;100.00;96914.94;1036141;28;20030;-67
2021/09/22 01:35:39;;;;;;;35.90;24.42;;;;;;;5.79;100.00;96909.75;1039036;28;20060;-67
2021/09/22 01:36:13;;;;;;;41.92;27.33;;;;;;;5.78;100.00;96902.94;1038506;28;20116;-67
2021/09/22 01:36:46;;;;;;;45.15;28.63;;;;;;;5.78;100.00;96905.53;1035154;28;20298;-67
2021/09/22 01:37:17;;;;;;;39.03;26.20;;;;;;;5.77;100.00;96906.56;1034991;28;20257;-67
2021/09/22 01:37:48;;;;;;;38.55;26.88;;;;;;;5.77;100.00;96911.75;1034793;28;20273;-67
2021/09/22 01:38:20;;;;;;;36.88;25.85;;;;;;;5.76;100.00;96910.16;1031018;28;20049;-67
2021/09/22 01:38:51;;;;;;;36.55;26.02;;;;;;;5.76;100.00;96915.34;1027457;28;20015;-67
2021/09/22 01:39:21;;;;;;;34.70;25.55;;;;;;;5.76;100.00;96914.56;1031053;28;20257;-65
2021/09/22 01:39:51;;;;;;;39.63;27.80;;;;;;;5.76;100.00;96910.16;1030908;28;20074;-67
2021/09/22 01:40:22;;;;;;;38.45;26.90;;;;;;;5.75;100.00;96907.75;1035005;28;20021;-66
2021/09/22 01:40:59;;;;;;;40.47;27.60;;;;;;;5.76;100.00;96909.34;1039219;28;20025;-67
2021/09/22 01:41:30;;;;;;;38.35;26.10;;;;;;;5.74;100.00;96912.16;1037761;28;20018;-67
2021/09/22 01:42:00;;;;;;;39.67;26.70;;;;;;;5.74;100.00;96912.16;1039142;28;20276;-64
2021/09/22 01:42:31;;;;;;;39.30;27.00;;;;;;;5.74;100.00;96912.16;1039102;28;20539;-67
2021/09/22 01:43:01;;;;;;;38.22;27.15;;;;;;;5.72;100.00;96906.34;1038426;28;20422;-67
2021/09/22 01:43:33;;;;;;;35.53;24.67;;;;;;;5.73;100.00;96909.75;1030260;28;20014;-65
2021/09/22 01:44:04;;;;;;;35.67;26.23;;;;;;;5.68;100.00;96908.56;1024398;28;20141;-66
2021/09/22 01:44:35;;;;;;;39.00;26.65;;;;;;;5.72;100.00;96903.75;1020510;28;20270;-66
2021/09/22 01:45:06;;;;;;;37.03;26.45;;;;;;;5.70;100.00;96905.78;1027051;28;20015;-67
2021/09/22 01:45:37;;;;;;;34.58;25.35;;;;;;;5.72;100.00;96905.56;1026539;28;20329;-66
2021/09/22 01:46:07;;;;;;;40.85;27.80;;;;;;;5.72;100.00;96908.94;1027270;28;20270;-66
2021/09/22 01:46:38;;;;;;;41.15;27.63;;;;;;;5.72;100.00;96903.75;1034306;28;20050;-67
2021/09/22 01:47:08;;;;;;;39.50;27.85;;;;;;;5.71;100.00;96911.78;1030672;28;20022;-66
2021/09/22 01:47:39;;;;;;;37.75;25.13;;;;;;;5.72;100.00;96908.94;1034982;28;20014;-65
2021/09/22 01:48:09;;;;;;;37.85;26.63;;;;;;;5.71;100.00;96907.34;1030364;28;20026;-66
2021/09/22 01:48:40;;;;;;;44.25;27.63;;;;;;;5.73;100.00;96905.34;1035020;28;20021;-67
2021/09/22 01:49:21;;;;;;;45.80;29.65;;;;;;;5.74;100.00;96912.16;1038797;28;20076;-66
2021/09/22 01:49:59;;;;;;;45.85;28.55;;;;;;;5.56;100.00;96878.13;1031699;28;20019;-67
2021/09/22 01:50:29;;;;;;;49.05;29.90;;;;;;;5.74;100.00;96912.16;1030325;28;20369;-67
2021/09/22 01:51:00;;;;;;;53.20;31.45;;;;;;;5.74;100.00;96906.97;1018734;29;20268;-67
2021/09/22 01:51:31;;;;;;;43.63;28.52;;;;;;;5.74;100.00;96914.78;1016644;29;20702;-67
2021/09/22 01:52:02;;;;;;;47.22;29.83;;;;;;;5.74;100.00;96912.16;1018950;29;20264;-65
2021/09/22 01:52:33;;;;;;;44.92;28.70;;;;;;;5.73;100.00;96912.34;1019410;28;20051;-65
2021/09/22 01:53:03;;;;;;;40.60;27.98;;;;;;;5.73;100.00;96915.75;1027590;28;20261;-66
2021/09/22 01:53:34;;;;;;;46.53;29.10;;;;;;;5.73;100.00;96914.97;1034722;28;20029;-67
2021/09/22 01:54:04;;;;;;;43.40;28.38;;;;;;;5.67;100.00;96901.75;1034914;28;20037;-66
2021/09/22 01:54:35;;;;;;;48.45;29.10;;;;;;;5.72;100.00;96916.75;1030489;28;20490;-66
2021/09/22 01:55:05;;;;;;;43.42;29.13;;;;;;;5.72;100.00;96914.16;1033890;28;20029;-67
2021/09/22 01:55:36;;;;;;;47.17;29.25;;;;;;;5.72;100.00;96924.56;1030972;28;20074;-67
2021/09/22 01:56:07;;;;;;;39.70;27.08;;;;;;;5.62;100.00;96904.16;1030859;28;20022;-67
2021/09/22 01:56:37;;;;;;;41.08;27.42;;;;;;;5.68;100.00;96915.56;1028109;28;20085;-66
2021/09/22 01:57:09;;;;;;;43.58;28.00;;;;;;;5.64;100.00;96909.97;1027008;28;20150;-67
2021/09/22 01:57:39;;;;;;;37.85;25.75;;;;;;;5.70;100.00;96921.38;1026768;28;20509;-67
2021/09/22 01:58:10;;;;;;;39.45;27.08;;;;;;;5.71;100.00;96917.78;1023652;28;20262;-67
2021/09/22 01:58:40;;;;;;;39.55;27.08;;;;;;;5.72;100.00;96923.78;1030236;28;20117;-65
2021/09/22 01:59:11;;;;;;;41.53;27.00;;;;;;;5.71;100.00;96911.78;1026745;28;20037;-67
2021/09/22 01:59:41;;;;;;;44.00;28.83;;;;;;;5.73;100.00;96912.34;1030819;28;20439;-65
2021/09/22 02:00:12;;;;;;;39.42;26.95;;;;;;;5.73;100.00;96920.16;1034295;28;20531;-67
2021/09/22 02:00:42;;;;;;;45.03;28.40;;;;;;;5.72;100.00;96914.16;1030385;28;20026;-66
2021/09/22 02:01:13;;;;;;;37.65;26.10;;;;;;;5.72;100.00;96915.97;1030331;28;20031;-66
2021/09/22 02:01:43;;;;;;;39.25;25.10;;;;;;;5.71;100.00;96912.56;1029827;28;20377;-67
2021/09/22 02:02:14;;;;;;;34.30;24.48;;;;;;;5.71;100.00;96911.78;1030789;28;20026;-67
2021/09/22 02:02:45;;;;;;;35.72;24.90;;;;;;;5.70;100.00;96916.19;1026658;28;20050;-67
2021/09/22 02:03:16;;;;;;;30.48;22.33;;;;;;;5.70;100.00;96910.97;1023174;28;20027;-66
2021/09/22 02:03:47;;;;;;;34.08;24.65;;;;;;;5.69;100.00;96914.56;1024767;28;20023;-65
2021/09/22 02:04:18;;;;;;;37.10;26.63;;;;;;;5.69;100.00;96914.56;1030871;28;20289;-66
2021/09/22 02:04:48;;;;;;;34.22;24.73;;;;;;;5.69;100.00;96909.34;1034125;28;20283;-66
2021/09/22 02:05:19;;;;;;;38.88;26.50;;;;;;;5.70;100.00;96905.78;1030639;28;20242;-67
2021/09/22 02:05:49;;;;;;;41.10;26.40;;;;;;;5.70;100.00;96904.94;1025606;28;20042;-68
2021/09/22 02:06:20;;;;;;;42.25;27.38;;;;;;;5.71;100.00;96911.78;1026690;28;20425;-67
2021/09/22 02:06:50;;;;;;;47.50;28.25;;;;;;;5.70;100.00;96910.16;1025663;28;20026;-67
2021/09/22 02:07:20;;;;;;;42.78;26.10;;;;;;;5.67;100.00;96906.16;1028712;28;20034;-65
2021/09/22 02:07:51;;;;;;;46.40;27.67;;;;;;;5.69;100.00;96911.97;1030149;28;20026;-66
2021/09/22 02:08:21;;;;;;;46.13;29.55;;;;;;;5.69;100.00;96911.97;1027611;28;20031;-67
2021/09/22 02:08:52;;;;;;;42.55;27.48;;;;;;;5.69;100.00;96909.34;1026346;28;20149;-66
2021/09/22 02:09:22;;;;;;;44.78;28.30;;;;;;;5.69;100.00;96906.75;1030623;28;20081;-67
2021/09/22 02:09:53;;;;;;;47.15;29.85;;;;;;;5.68;100.00;96902.56;1037519;28;20036;-67
2021/09/22 02:10:23;;;;;;;52.35;30.48;;;;;;;5.68;100.00;96905.16;1034464;28;20030;-66
2021/09/22 02:10:54;;;;;;;41.10;25.52;;;;;;;5.67;100.00;96906.97;1038451;28;20029;-67
2021/09/22 02:11:24;;;;;;;40.17;26.83;;;;;;;5.68;100.00;96905.16;1031564;28;20085;-66
2021/09/22 02:11:55;;;;;;;38.45;27.17;;;;;;;5.66;100.00;96904.53;1029531;28;20025;-67
2021/09/22 02:12:26;;;;;;;37.70;27.50;;;;;;;5.66;100.00;96900.13;1032293;28;20023;-67
2021/09/22 02:12:56;;;;;;;40.75;26.83;;;;;;;5.64;100.00;96901.38;1030062;28;20577;-67
2021/09/22 02:13:27;;;;;;;44.63;27.95;;;;;;;5.68;100.00;96907.75;1028339;28;20250;-67
2021/09/22 02:13:57;;;;;;;43.72;28.92;;;;;;;5.65;100.00;96903.75;1029614;28;20022;-64
2021/09/22 02:14:28;;;;;;;44.55;28.40;;;;;;;5.64;100.00;96906.56;1028763;28;20023;-67
2021/09/22 02:14:58;;;;;;;40.25;28.27;;;;;;;5.66;100.00;96910.56;1026176;28;20034;-65
2021/09/22 02:15:29;;;;;;;41.35;26.77;;;;;;;5.65;100.00;96908.97;1026253;28;20649;-67
2021/09/22 02:15:59;;;;;;;49.10;28.90;;;;;;;5.66;100.00;96904.53;1025418;28;20751;-67
2021/09/22 02:16:30;;;;;;;46.25;28.10;;;;;;;5.67;100.00;96906.16;1029049;28;20430;-66
2021/09/22 02:17:00;;;;;;;44.17;27.83;;;;;;;5.66;100.00;96902.75;1026408;28;20479;-64
2021/09/22 02:17:30;;;;;;;43.00;27.50;;;;;;;5.66;100.00;96904.53;1026706;28;20073;-67
2021/09/22 02:18:01;;;;;;;44.42;28.17;;;;;;;5.66;100.00;96910.56;1022612;29;20023;-66
2021/09/22 02:18:31;;;;;;;39.80;26.95;;;;;;;5.66;100.00;96910.56;1018197;28;20819;-67
2021/09/22 02:19:02;;;;;;;33.72;23.70;;;;;;;5.66;100.00;96912.34;1027107;28;20513;-66
2021/09/22 02:19:32;;;;;;;39.92;26.15;;;;;;;5.65;100.00;96915.97;1026397;28;20034;-66
2021/09/22 02:20:04;;;;;;;35.67;25.17;;;;;;;5.62;100.00;96908.56;1030722;28;20384;-66
2021/09/22 02:20:35;;;;;;;40.33;28.17;;;;;;;5.64;100.00;96917.78;1025022;28;20027;-67
2021/09/22 02:21:09;;;;;;;39.40;26.52;;;;;;;5.67;100.00;96919.19;1027308;28;21092;-66
2021/09/22 02:21:40;;;;;;;36.05;24.67;;;;;;;5.65;100.00;96921.19;1023500;28;20326;-67
2021/09/22 02:22:10;;;;;;;42.85;27.33;;;;;;;5.65;100.00;96918.56;1026216;28;20716;-66